Ramona, OK (74061)

7:34 PM CDT on August 03, 2015 (GMT -0500)
KOKHOGSH1 | | Change Station
CLOSE
Current Station
Personal Weather Station
Location: Hogshooter, OK
Elevation: 790 ft
Nearby Weather Stations

Elev 790 ft 36.69 °N, 95.83 °W | Updated 4 minutes ago

Partly Cloudy
Partly Cloudy
87.5 °F
Feels Like 95 °F
N
0.0
Wind Variable Wind from SSE
Gusts 7.0 mph

Today
High -- | Low -- °F
--% Chance of Precip.
Yesterday
High -- | Low -- °F
Precip. -- in
6:31 AM 8:27 PM
Waning Gibbous, 83% visible
Pressure 29.87 in
Visibility 10.0 miles
Clouds Clear
Heat Index 95 °F
Dew Point 72 °F
Humidity 61%
Rainfall 0.00 in
Snow Depth Not available.
UV 1 out of 12
Pollen 4.70 out of 12
Air Quality Not available.
Flu Activity Not available.
METAR KBVO 032353Z AUTO 18005KT 10SM CLR 31/19 A2990 RMK AO2 SLP115 T03110189 10356 20311 56007

More Conditions Fewer Conditions

Pressure 29.87 in
Visibility 10.0 miles
Clouds Clear
Heat Index 95 °F
Dew Point 72 °F
Humidity 61%
Rainfall 0.00 in
Snow Depth Not available.
UV 1 out of 12
Pollen 4.70 out of 12
Air Quality Not available.
Flu Activity Not available.
METAR KBVO 032353Z AUTO 18005KT 10SM CLR 31/19 A2990 RMK AO2 SLP115 T03110189 10356 20311 56007

More Conditions Fewer Conditions

10-Day Weather Forecast

×

Almanac

Astronomy

Aug. 03, 2015 Rise Set
Actual Time
Civil Twilight
Nautical Twilight
Astronomical Twilight
Moon
Length of Visible Light
Length of Day
Tomorrow will be .
, % of the Moon is Illuminated

Today's Extremes

State Highs State Lows

Community

WunderPhotos

Upload Photos

1,843,794 photos uploaded!

WunderBlogs® & News

Nearby

Air Quality

  Air Quality AQ Index Pollutant
Not available.

Snow Depth

Station Depth Elevation

Earthquake Activity

City Distance Mag. Time & Date
Minimum magnitude displayed is 2.5.

Coastal Water Temperatures

Place Temperature

Stations

Nearby Weather Stations

Station Location Temp. Windchill Dew Point Humidity Wind Precip. Elev Updated Type